Time;durP1;ratioP1;P1;durP2;ratioP2;P2;SDS_P1;SDS_P2;PMS_P1;PMS_P2;Temp;Humidity;BMP_temperature;BMP_pressure;BME280_temperature;BME280_humidity;BME280_pressure;Samples;Min_cycle;Max_cycle;Signal;HPM_P1;HPM_P2
2023/08/30 00:02:18;;;;;;;17.57;15.70;;;14.10;99.90;;;;;;4843692;29;20304;-82
2023/08/30 00:04:44;;;;;;;17.67;15.67;;;14.10;99.90;;;;;;4843505;29;20650;-81
2023/08/30 00:07:10;;;;;;;18.07;15.80;;;14.20;99.90;;;;;;4843366;29;20604;-81
2023/08/30 00:09:36;;;;;;;16.10;14.23;;;14.20;99.90;;;;;;4843282;29;20220;-82
2023/08/30 00:12:03;;;;;;;15.30;13.90;;;14.20;99.90;;;;;;4843577;29;20433;-82
2023/08/30 00:14:28;;;;;;;15.27;13.77;;;14.20;99.90;;;;;;4843578;29;20853;-82
2023/08/30 00:16:54;;;;;;;15.20;13.60;;;14.20;99.90;;;;;;4843476;29;20437;-82
2023/08/30 00:19:20;;;;;;;17.03;15.27;;;14.30;99.90;;;;;;4843358;29;20213;-82
2023/08/30 00:21:46;;;;;;;17.53;14.07;;;14.30;99.90;;;;;;4843304;29;20200;-82
2023/08/30 00:24:11;;;;;;;14.70;13.20;;;14.30;99.90;;;;;;4843212;29;20800;-82
2023/08/30 00:26:37;;;;;;;14.50;13.00;;;14.30;99.90;;;;;;4842976;29;20189;-82
2023/08/30 00:29:02;;;;;;;14.60;13.17;;;14.30;99.90;;;;;;4843223;29;20699;-82
2023/08/30 00:31:28;;;;;;;12.77;11.37;;;14.30;99.90;;;;;;4843288;29;20189;-82
2023/08/30 00:33:54;;;;;;;15.60;12.80;;;14.30;99.90;;;;;;4844027;29;20188;-82
2023/08/30 00:36:19;;;;;;;13.33;11.93;;;14.30;99.90;;;;;;4846566;29;20189;-82
2023/08/30 00:38:45;;;;;;;13.43;12.13;;;14.40;99.90;;;;;;4846464;29;20215;-82
2023/08/30 00:41:11;;;;;;;14.03;12.73;;;14.40;99.90;;;;;;4846407;29;20185;-82
2023/08/30 00:43:36;;;;;;;14.23;12.83;;;14.30;99.90;;;;;;4844852;29;20429;-82
2023/08/30 00:46:03;;;;;;;13.87;12.57;;;14.40;99.90;;;;;;4846388;29;20224;-82
2023/08/30 00:48:28;;;;;;;16.47;13.53;;;14.30;99.90;;;;;;4846436;29;20592;-82
2023/08/30 00:50:54;;;;;;;14.17;12.77;;;14.30;99.90;;;;;;4846432;29;20429;-82
2023/08/30 00:53:20;;;;;;;14.50;13.10;;;14.30;99.90;;;;;;4846403;29;20192;-82
2023/08/30 00:55:46;;;;;;;11.90;10.80;;;14.30;99.90;;;;;;4846198;29;20193;-82
2023/08/30 00:58:12;;;;;;;13.53;12.10;;;14.20;99.90;;;;;;4846280;29;20635;-82
2023/08/30 01:00:38;;;;;;;15.97;11.77;;;14.20;99.90;;;;;;4846425;29;20193;-82
2023/08/30 01:03:07;;;;;;;14.03;11.73;;;14.10;99.90;;;;;;4846709;29;20422;-82
2023/08/30 01:05:32;;;;;;;12.83;11.30;;;14.10;99.90;;;;;;4846166;29;20428;-82
2023/08/30 01:07:58;;;;;;;11.63;10.40;;;14.00;99.90;;;;;;4845879;29;21048;-82
2023/08/30 01:10:42;;;;;;;12.60;11.30;;;14.00;99.90;;;;;;4846224;29;20205;-82
2023/08/30 01:13:12;;;;;;;13.07;11.07;;;13.90;99.90;;;;;;4846313;29;20605;-82
2023/08/30 01:15:39;;;;;;;15.47;11.97;;;13.80;99.90;;;;;;4846089;29;20416;-82
2023/08/30 01:18:06;;;;;;;12.87;11.60;;;13.70;99.90;;;;;;4846065;29;20430;-81
2023/08/30 01:20:36;;;;;;;12.33;11.00;;;13.70;99.90;;;;;;4845736;29;20421;-82
2023/08/30 01:23:40;;;;;;;11.77;10.67;;;13.60;99.90;;;;;;4845598;29;20414;-82
2023/08/30 01:26:15;;;;;;;12.87;11.57;;;13.60;99.90;;;;;;4846437;29;20430;-82
2023/08/30 01:28:41;;;;;;;14.10;12.00;;;13.50;99.90;;;;;;4845600;29;20468;-82
2023/08/30 01:31:09;;;;;;;14.73;12.03;;;13.50;99.90;;;;;;4845839;29;20426;-82
2023/08/30 01:33:36;;;;;;;14.23;12.70;;;13.50;99.90;;;;;;4845539;29;20192;-82
2023/08/30 01:36:03;;;;;;;14.07;12.67;;;13.40;99.90;;;;;;4846058;29;20418;-82
2023/08/30 01:38:30;;;;;;;14.03;12.60;;;13.30;99.90;;;;;;4845429;29;20541;-82
2023/08/30 01:40:57;;;;;;;17.00;13.57;;;13.30;99.90;;;;;;4845582;29;20617;-82
2023/08/30 01:43:26;;;;;;;14.60;12.77;;;13.30;99.90;;;;;;4845775;29;20433;-82
2023/08/30 01:45:52;;;;;;;15.10;13.60;;;13.20;99.90;;;;;;4844723;29;20453;-82
2023/08/30 01:48:19;;;;;;;14.13;12.83;;;13.10;99.90;;;;;;4845536;29;20470;-82
2023/08/30 01:50:45;;;;;;;12.70;11.47;;;13.10;99.90;;;;;;4845008;29;20418;-82
2023/08/30 01:53:13;;;;;;;15.07;13.53;;;13.00;99.90;;;;;;4845693;29;21031;-82
2023/08/30 01:55:39;;;;;;;14.20;12.83;;;13.00;99.90;;;;;;4845729;29;20453;-83
2023/08/30 01:58:07;;;;;;;18.00;13.63;;;12.90;99.90;;;;;;4845516;29;20786;-82
2023/08/30 02:00:32;;;;;;;17.53;14.23;;;12.90;99.90;;;;;;4844935;29;20422;-82
2023/08/30 02:02:58;;;;;;;19.07;13.87;;;12.80;99.90;;;;;;4845225;29;20426;-82
2023/08/30 02:05:24;;;;;;;21.50;15.23;;;12.80;99.90;;;;;;4845293;29;20203;-82
2023/08/30 02:08:12;;;;;;;15.97;14.40;;;12.80;99.90;;;;;;4844857;29;21026;-82
2023/08/30 02:10:41;;;;;;;17.53;15.70;;;12.80;99.90;;;;;;4845390;29;20204;-84
2023/08/30 02:13:09;;;;;;;15.17;12.87;;;12.80;99.90;;;;;;4844938;29;20760;-82
2023/08/30 02:15:35;;;;;;;16.97;15.17;;;12.70;99.90;;;;;;4845311;29;20414;-82
2023/08/30 02:18:03;;;;;;;25.53;16.37;;;12.70;99.90;;;;;;4844923;29;20525;-82
2023/08/30 02:20:28;;;;;;;21.77;15.83;;;12.60;99.90;;;;;;4845021;29;20434;-82
2023/08/30 02:22:59;;;;;;;15.83;14.30;;;12.60;99.90;;;;;;4845279;29;20787;-82
2023/08/30 02:25:24;;;;;;;18.43;15.90;;;12.60;99.90;;;;;;4844792;29;20216;-82
2023/08/30 02:27:50;;;;;;;16.47;14.33;;;12.60;99.90;;;;;;4844333;29;20536;-82
2023/08/30 02:30:15;;;;;;;16.80;14.10;;;12.50;99.90;;;;;;4845180;29;20189;-82
2023/08/30 02:32:41;;;;;;;18.33;15.23;;;12.50;99.90;;;;;;4845192;29;20245;-82
2023/08/30 02:35:07;;;;;;;16.27;14.67;;;12.50;99.90;;;;;;4844706;29;20272;-82
2023/08/30 02:37:32;;;;;;;15.87;14.27;;;12.40;99.90;;;;;;4845023;29;20200;-82
2023/08/30 02:39:58;;;;;;;18.10;13.87;;;12.40;99.90;;;;;;4844351;29;20433;-82
2023/08/30 02:42:25;;;;;;;15.20;13.30;;;12.30;99.90;;;;;;4844830;29;20192;-82
2023/08/30 02:44:51;;;;;;;17.30;14.20;;;12.20;99.90;;;;;;4844185;29;20300;-82
2023/08/30 02:47:17;;;;;;;15.47;13.77;;;12.20;99.90;;;;;;4844588;29;20597;-81
2023/08/30 02:49:42;;;;;;;13.93;12.53;;;12.20;99.90;;;;;;4844381;29;20280;-82
2023/08/30 02:52:08;;;;;;;16.10;14.40;;;12.10;99.90;;;;;;4844395;29;20189;-82
2023/08/30 02:54:34;;;;;;;22.17;13.27;;;12.10;99.90;;;;;;4844580;29;20219;-83
2023/08/30 02:57:00;;;;;;;15.53;13.93;;;12.10;99.90;;;;;;4843443;29;20418;-82
2023/08/30 02:59:25;;;;;;;15.37;13.63;;;12.00;99.90;;;;;;4844325;29;20197;-82
2023/08/30 03:01:51;;;;;;;16.63;15.00;;;12.00;99.90;;;;;;4844282;29;20188;-82
2023/08/30 03:04:17;;;;;;;20.10;15.90;;;11.90;99.90;;;;;;4843088;29;20257;-82
2023/08/30 03:06:43;;;;;;;17.87;16.03;;;11.90;99.90;;;;;;4844195;29;20224;-82
2023/08/30 03:09:08;;;;;;;18.77;15.07;;;11.90;99.90;;;;;;4844291;29;20565;-82
2023/08/30 03:11:34;;;;;;;16.03;14.40;;;11.90;99.90;;;;;;4844340;29;20216;-81
2023/08/30 03:13:59;;;;;;;17.60;15.67;;;11.90;99.90;;;;;;4844415;29;20297;-82
2023/08/30 03:16:25;;;;;;;14.70;13.10;;;11.90;99.90;;;;;;4844513;29;20269;-81
2023/08/30 03:18:51;;;;;;;16.57;14.97;;;11.90;99.90;;;;;;4843911;29;20229;-82
2023/08/30 03:21:17;;;;;;;15.33;13.33;;;11.80;99.90;;;;;;4844334;29;20241;-82
2023/08/30 03:23:42;;;;;;;16.33;13.43;;;11.80;99.90;;;;;;4843924;29;20488;-85
2023/08/30 03:26:12;;;;;;;14.03;12.70;;;11.80;99.90;;;;;;4844132;29;20189;-82
2023/08/30 03:28:39;;;;;;;16.30;14.23;;;11.80;99.90;;;;;;4844224;29;20223;-82
2023/08/30 03:31:18;;;;;;;15.77;13.90;;;11.80;99.90;;;;;;4844049;29;20256;-82
2023/08/30 03:33:44;;;;;;;14.73;13.13;;;11.70;99.90;;;;;;4844386;29;20189;-83
2023/08/30 03:36:11;;;;;;;16.80;12.77;;;11.70;99.90;;;;;;4844170;29;20772;-82
2023/08/30 03:38:37;;;;;;;20.05;15.57;;;11.60;99.90;;;;;;4843767;29;20193;-82
2023/08/30 03:41:03;;;;;;;19.77;16.60;;;11.60;99.90;;;;;;4843958;29;20191;-82
2023/08/30 03:43:30;;;;;;;16.90;15.07;;;11.60;99.90;;;;;;4844025;29;20787;-81
2023/08/30 03:45:56;;;;;;;17.20;14.70;;;11.60;99.90;;;;;;4843999;29;20425;-82
2023/08/30 03:48:21;;;;;;;14.60;13.10;;;11.60;99.90;;;;;;4844051;29;20475;-82
2023/08/30 03:50:47;;;;;;;17.47;15.73;;;11.60;99.90;;;;;;4843624;29;20638;-82
2023/08/30 03:53:13;;;;;;;17.30;14.40;;;11.50;99.90;;;;;;4844032;29;20185;-82
2023/08/30 03:55:38;;;;;;;16.43;14.67;;;11.50;99.90;;;;;;4844567;29;20203;-81
2023/08/30 03:58:04;;;;;;;18.93;15.97;;;11.50;99.90;;;;;;4843856;29;20200;-82
2023/08/30 04:00:29;;;;;;;18.70;14.57;;;11.60;99.90;;;;;;4843613;29;20245;-82
2023/08/30 04:02:55;;;;;;;17.47;14.00;;;11.50;99.90;;;;;;4843516;29;20268;-82
2023/08/30 04:05:20;;;;;;;18.23;14.17;;;11.40;99.90;;;;;;4843799;29;20193;-82
2023/08/30 04:07:46;;;;;;;16.60;14.90;;;11.40;99.90;;;;;;4843424;29;20303;-82
2023/08/30 04:10:11;;;;;;;16.63;15.03;;;11.40;99.90;;;;;;4846445;29;20578;-82
2023/08/30 04:12:37;;;;;;;21.60;15.57;;;11.40;99.90;;;;;;4847436;29;20197;-82
2023/08/30 04:15:03;;;;;;;23.70;14.57;;;11.40;99.90;;;;;;4847356;29;20283;-82
2023/08/30 04:17:28;;;;;;;15.73;14.10;;;11.40;99.90;;;;;;4847593;29;20196;-82
2023/08/30 04:19:54;;;;;;;20.80;14.87;;;11.40;99.90;;;;;;4847226;29;20556;-81
2023/08/30 04:22:20;;;;;;;17.27;15.17;;;11.40;99.90;;;;;;4847294;29;20642;-82
2023/08/30 04:24:46;;;;;;;16.47;14.77;;;11.40;99.90;;;;;;4847660;29;20197;-81
2023/08/30 04:27:12;;;;;;;16.05;13.52;;;11.40;99.90;;;;;;4847450;29;20196;-81
2023/08/30 04:29:37;;;;;;;21.00;14.20;;;11.40;99.90;;;;;;4847504;29;20560;-81
2023/08/30 04:32:03;;;;;;;14.43;12.93;;;11.40;99.90;;;;;;4846800;29;20185;-81
2023/08/30 04:34:30;;;;;;;17.03;13.80;;;11.40;99.90;;;;;;4847488;29;20603;-81
2023/08/30 04:36:56;;;;;;;15.87;13.93;;;11.40;99.90;;;;;;4846451;29;20249;-82
2023/08/30 04:39:21;;;;;;;20.57;14.27;;;11.40;99.90;;;;;;4847308;29;20430;-82
2023/08/30 04:41:47;;;;;;;17.53;12.90;;;11.40;99.90;;;;;;4845661;29;20482;-85
2023/08/30 04:44:12;;;;;;;15.77;12.23;;;11.40;99.90;;;;;;4846996;29;20243;-82
2023/08/30 04:46:38;;;;;;;14.83;12.27;;;11.30;99.90;;;;;;4847168;29;20545;-82
2023/08/30 04:49:04;;;;;;;17.40;12.93;;;11.30;99.90;;;;;;4846776;29;20216;-82
2023/08/30 04:51:29;;;;;;;15.43;13.77;;;11.30;99.90;;;;;;4846769;29;20189;-81
2023/08/30 04:53:55;;;;;;;17.90;12.63;;;11.40;99.90;;;;;;4846812;29;20185;-82
2023/08/30 04:56:20;;;;;;;16.20;13.33;;;11.40;99.90;;;;;;4846630;29;20193;-82
2023/08/30 04:58:46;;;;;;;21.00;14.50;;;11.40;99.90;;;;;;4847228;29;20273;-81
2023/08/30 05:01:13;;;;;;;15.40;13.90;;;11.40;99.90;;;;;;4846507;29;20245;-81
2023/08/30 05:03:39;;;;;;;17.20;14.40;;;11.40;99.90;;;;;;4846656;29;20193;-81
2023/08/30 05:06:05;;;;;;;19.10;14.38;;;11.50;99.90;;;;;;4845457;29;20429;-81
2023/08/30 05:08:31;;;;;;;20.80;14.80;;;11.60;99.90;;;;;;4846656;29;20232;-82
2023/08/30 05:10:57;;;;;;;19.23;14.90;;;11.60;99.90;;;;;;4846497;29;20196;-82
2023/08/30 05:13:22;;;;;;;19.70;15.77;;;11.60;99.90;;;;;;4846272;29;20237;-80
2023/08/30 05:15:48;;;;;;;22.87;17.43;;;11.60;99.90;;;;;;4846088;29;20551;-81
2023/08/30 05:18:13;;;;;;;17.40;15.23;;;11.60;99.90;;;;;;4845478;29;20193;-82
2023/08/30 05:20:39;;;;;;;17.70;15.87;;;11.70;99.90;;;;;;4845405;29;20195;-82
2023/08/30 05:23:04;;;;;;;18.37;16.43;;;11.70;99.90;;;;;;4845053;29;20193;-82
2023/08/30 05:25:30;;;;;;;17.57;15.17;;;11.70;99.90;;;;;;4846703;29;20256;-81
2023/08/30 05:27:56;;;;;;;16.53;14.60;;;11.70;99.90;;;;;;4846261;29;20245;-82
2023/08/30 05:30:21;;;;;;;21.73;14.80;;;11.70;99.90;;;;;;4845151;29;20200;-82
2023/08/30 05:32:47;;;;;;;16.73;14.80;;;11.70;99.90;;;;;;4846021;29;20542;-81
2023/08/30 05:35:12;;;;;;;21.00;14.43;;;11.80;99.90;;;;;;4845874;29;20185;-82
2023/08/30 05:37:38;;;;;;;16.70;15.10;;;11.80;99.90;;;;;;4846201;29;20234;-82
2023/08/30 05:40:04;;;;;;;17.73;15.70;;;11.80;99.90;;;;;;4845889;29;20207;-82
2023/08/30 05:42:30;;;;;;;21.80;16.07;;;11.80;99.90;;;;;;4845914;29;20224;-81
2023/08/30 05:44:55;;;;;;;15.93;14.30;;;11.90;99.90;;;;;;4846152;29;20410;-82
2023/08/30 05:47:21;;;;;;;15.83;14.23;;;11.90;99.90;;;;;;4846095;29;20196;-82
2023/08/30 05:49:46;;;;;;;17.90;14.23;;;11.90;99.90;;;;;;4846135;29;20287;-82
2023/08/30 05:52:12;;;;;;;19.50;15.23;;;12.00;99.90;;;;;;4844758;29;20189;-81
2023/08/30 05:54:38;;;;;;;16.43;14.73;;;12.00;99.90;;;;;;4846342;29;20193;-81
2023/08/30 05:57:03;;;;;;;17.23;15.53;;;12.00;99.90;;;;;;4845798;29;20231;-81
2023/08/30 05:59:29;;;;;;;20.13;16.50;;;12.10;99.90;;;;;;4845874;29;20196;-81
2023/08/30 06:01:55;;;;;;;17.30;15.50;;;12.20;99.90;;;;;;4845858;29;20192;-82
2023/08/30 06:04:20;;;;;;;17.70;15.03;;;12.20;99.90;;;;;;4845665;29;20272;-82
2023/08/30 06:06:46;;;;;;;17.23;15.47;;;12.30;99.90;;;;;;4844558;29;20197;-81
2023/08/30 06:09:12;;;;;;;17.10;15.07;;;12.40;99.90;;;;;;4845206;29;20293;-81
2023/08/30 06:11:38;;;;;;;21.67;15.90;;;12.50;99.90;;;;;;4845654;29;20613;-81
2023/08/30 06:14:05;;;;;;;18.30;16.50;;;12.50;99.90;;;;;;4845749;29;20499;-82
2023/08/30 06:16:30;;;;;;;20.40;15.53;;;12.70;99.90;;;;;;4845584;29;20478;-81
2023/08/30 06:18:58;;;;;;;20.23;17.07;;;12.80;99.90;;;;;;4845559;29;20422;-82
2023/08/30 06:21:24;;;;;;;20.63;13.90;;;12.90;99.90;;;;;;4845842;29;20189;-81
2023/08/30 06:23:50;;;;;;;17.90;15.90;;;13.00;99.90;;;;;;4844869;29;20918;-81
2023/08/30 06:26:16;;;;;;;16.73;15.03;;;13.10;99.90;;;;;;4845004;29;20494;-81
2023/08/30 06:28:42;;;;;;;15.53;13.93;;;13.20;99.90;;;;;;4845348;29;20613;-82
2023/08/30 06:31:08;;;;;;;15.87;14.20;;;13.30;99.90;;;;;;4844662;29;20197;-81
2023/08/30 06:33:33;;;;;;;15.63;12.80;;;13.30;99.90;;;;;;4845004;29;20429;-81
2023/08/30 06:35:59;;;;;;;14.73;13.10;;;13.40;99.90;;;;;;4844856;29;20181;-82
2023/08/30 06:38:25;;;;;;;14.63;12.20;;;13.40;99.90;;;;;;4845193;29;20623;-81
2023/08/30 06:40:50;;;;;;;13.10;11.73;;;13.50;99.90;;;;;;4844780;29;20177;-81
2023/08/30 06:43:16;;;;;;;13.40;11.60;;;13.60;99.90;;;;;;4844394;29;20706;-81
2023/08/30 06:45:42;;;;;;;19.50;12.03;;;13.60;99.90;;;;;;4844696;29;20638;-82
2023/08/30 06:48:08;;;;;;;11.33;10.33;;;13.80;99.90;;;;;;4844162;29;20213;-82
2023/08/30 06:50:34;;;;;;;12.57;11.37;;;13.90;99.90;;;;;;4845118;29;20410;-82
2023/08/30 06:53:01;;;;;;;10.70;9.60;;;14.00;99.90;;;;;;4844685;29;20480;-82
2023/08/30 06:55:27;;;;;;;17.90;9.47;;;14.00;99.90;;;;;;4844533;29;20474;-83
2023/08/30 06:57:52;;;;;;;10.50;9.50;;;14.00;99.90;;;;;;4844739;29;20460;-81
2023/08/30 07:00:18;;;;;;;11.10;9.13;;;14.10;99.90;;;;;;4844085;29;20192;-82
2023/08/30 07:02:45;;;;;;;11.10;9.50;;;14.10;99.90;;;;;;4844233;29;20237;-82
2023/08/30 07:05:12;;;;;;;8.43;7.50;;;14.10;99.90;;;;;;4844139;29;20422;-82
2023/08/30 07:07:37;;;;;;;8.80;8.00;;;14.20;99.90;;;;;;4844138;29;20512;-82
2023/08/30 07:10:04;;;;;;;9.07;8.17;;;14.20;99.90;;;;;;4843947;29;20461;-83
2023/08/30 07:12:29;;;;;;;8.70;7.80;;;14.20;99.90;;;;;;4843802;29;20193;-82
2023/08/30 07:14:55;;;;;;;7.33;6.73;;;14.30;99.90;;;;;;4843715;29;20490;-82
2023/08/30 07:17:21;;;;;;;8.83;7.83;;;14.50;99.90;;;;;;4843101;29;20189;-83
2023/08/30 07:19:47;;;;;;;9.63;7.60;;;14.60;99.90;;;;;;4843377;29;20188;-82
2023/08/30 07:22:13;;;;;;;9.90;8.47;;;14.60;99.90;;;;;;4843352;29;20638;-81
2023/08/30 07:24:39;;;;;;;9.03;7.13;;;14.70;99.90;;;;;;4842955;29;20445;-82
2023/08/30 07:27:05;;;;;;;7.27;6.57;;;14.80;99.90;;;;;;4842748;29;20422;-82
2023/08/30 07:29:31;;;;;;;8.07;7.27;;;15.00;99.90;;;;;;4842904;29;20627;-82
2023/08/30 07:31:56;;;;;;;7.73;6.87;;;15.10;99.90;;;;;;4842785;29;20604;-82
2023/08/30 07:34:22;;;;;;;6.80;6.10;;;15.30;99.90;;;;;;4843486;29;20405;-82
2023/08/30 07:36:48;;;;;;;7.83;6.10;;;15.50;99.90;;;;;;4843170;29;20221;-82
2023/08/30 07:39:14;;;;;;;7.00;6.30;;;15.60;99.90;;;;;;4843073;29;20219;-82
2023/08/30 07:41:39;;;;;;;6.53;5.90;;;15.80;99.90;;;;;;4843555;29;20203;-83
2023/08/30 07:44:05;;;;;;;8.83;6.77;;;16.00;99.90;;;;;;4843314;29;20791;-82
2023/08/30 07:46:30;;;;;;;9.00;5.67;;;16.20;99.90;;;;;;4843003;29;20266;-82
2023/08/30 07:48:56;;;;;;;6.03;4.97;;;16.40;99.90;;;;;;4842976;29;20221;-84
2023/08/30 07:51:21;;;;;;;5.40;4.90;;;16.60;99.90;;;;;;4842534;29;20197;-82
2023/08/30 07:53:47;;;;;;;5.67;4.80;;;16.70;99.90;;;;;;4842993;29;20213;-83
2023/08/30 07:56:13;;;;;;;5.00;4.33;;;16.90;99.90;;;;;;4842987;29;20252;-82
2023/08/30 07:58:40;;;;;;;7.60;5.07;;;17.20;99.90;;;;;;4842903;29;20192;-82
2023/08/30 08:01:06;;;;;;;4.70;3.90;;;17.40;99.90;;;;;;4842864;29;20560;-82
2023/08/30 08:03:32;;;;;;;6.70;4.57;;;17.70;99.90;;;;;;4843230;29;20405;-82
2023/08/30 08:06:00;;;;;;;7.00;3.87;;;17.90;99.90;;;;;;4843322;29;20185;-82
2023/08/30 08:08:25;;;;;;;6.43;3.87;;;18.10;99.90;;;;;;4843020;29;20481;-82
2023/08/30 08:10:51;;;;;;;4.30;3.03;;;18.30;99.90;;;;;;4842642;29;20433;-82
2023/08/30 08:13:16;;;;;;;4.97;3.10;;;18.40;99.90;;;;;;4842249;29;20689;-83
2023/08/30 08:15:43;;;;;;;3.07;2.67;;;18.40;99.90;;;;;;4842321;29;20189;-82
2023/08/30 08:18:09;;;;;;;4.77;2.63;;;18.50;99.90;;;;;;4842155;29;20185;-82
2023/08/30 08:20:36;;;;;;;5.50;2.80;;;18.40;99.90;;;;;;4843995;29;20904;-82
2023/08/30 08:23:02;;;;;;;4.90;3.07;;;18.60;99.90;;;;;;4843164;29;20400;-82
2023/08/30 08:25:28;;;;;;;3.80;2.80;;;18.70;99.90;;;;;;4843377;29;20434;-82
2023/08/30 08:27:54;;;;;;;4.83;2.93;;;19.20;99.90;;;;;;4842746;29;20508;-84
2023/08/30 08:30:23;;;;;;;4.80;2.60;;;19.20;99.90;;;;;;4842955;29;20189;-82
2023/08/30 08:32:48;;;;;;;4.67;2.87;;;19.40;99.90;;;;;;4842792;29;20213;-82
2023/08/30 08:35:14;;;;;;;3.00;2.60;;;19.40;99.90;;;;;;4841162;29;20462;-84
2023/08/30 08:37:40;;;;;;;5.30;3.10;;;19.40;99.90;;;;;;4843383;29;20193;-82
2023/08/30 08:40:08;;;;;;;4.00;2.63;;;19.50;99.90;;;;;;4842393;29;20186;-83
2023/08/30 08:42:35;;;;;;;4.80;3.20;;;19.50;99.90;;;;;;4842533;29;20558;-82
2023/08/30 08:45:03;;;;;;;3.10;2.80;;;19.60;99.90;;;;;;4842471;29;20425;-84
2023/08/30 08:47:30;;;;;;;4.47;2.93;;;19.60;99.90;;;;;;4842643;29;20440;-85
2023/08/30 08:49:56;;;;;;;4.97;2.67;;;19.60;99.90;;;;;;4843078;29;20429;-84
2023/08/30 08:52:23;;;;;;;5.70;2.83;;;19.50;99.90;;;;;;4842925;29;20907;-83
2023/08/30 08:54:49;;;;;;;2.80;2.47;;;19.30;99.90;;;;;;4842477;29;20486;-82
2023/08/30 08:57:15;;;;;;;4.00;2.90;;;19.20;99.90;;;;;;4845410;29;20487;-83
2023/08/30 08:59:41;;;;;;;4.40;2.70;;;19.30;99.90;;;;;;4846191;29;20464;-83
2023/08/30 09:02:10;;;;;;;4.03;2.70;;;19.40;99.90;;;;;;4846005;29;20268;-84
2023/08/30 09:04:36;;;;;;;2.53;2.23;;;19.30;99.90;;;;;;4846047;29;20433;-83
2023/08/30 09:07:02;;;;;;;4.10;2.50;;;19.30;99.90;;;;;;4846141;29;20753;-83
2023/08/30 09:09:27;;;;;;;7.57;2.67;;;19.40;99.90;;;;;;4845409;29;20519;-82
2023/08/30 09:11:53;;;;;;;3.77;3.10;;;19.60;99.90;;;;;;4845760;29;20449;-83
2023/08/30 09:14:19;;;;;;;3.03;2.73;;;19.60;99.90;;;;;;4845397;29;20243;-84
2023/08/30 09:17:02;;;;;;;6.43;2.80;;;19.60;99.90;;;;;;4845948;29;20189;-83
2023/08/30 09:19:28;;;;;;;3.03;2.60;;;19.70;99.90;;;;;;4845445;29;20474;-84
2023/08/30 09:21:55;;;;;;;3.70;2.83;;;19.60;99.90;;;;;;4845491;29;20392;-82
2023/08/30 09:24:21;;;;;;;5.87;2.77;;;19.50;99.90;;;;;;4845318;29;20434;-82
2023/08/30 09:26:52;;;;;;;3.00;2.53;;;19.50;99.90;;;;;;4846335;29;20453;-82
2023/08/30 09:29:20;;;;;;;7.13;3.10;;;19.40;99.90;;;;;;4845386;29;20469;-82
2023/08/30 09:31:46;;;;;;;8.30;3.60;;;19.40;99.90;;;;;;4845579;29;20404;-82
2023/08/30 09:34:12;;;;;;;8.53;3.43;;;19.30;99.90;;;;;;4845809;29;20426;-82
2023/08/30 09:36:40;;;;;;;3.80;2.60;;;19.40;99.90;;;;;;4845730;29;20922;-82
2023/08/30 09:39:10;;;;;;;5.93;2.87;;;19.40;99.90;;;;;;4845535;29;20416;-83
2023/08/30 09:41:36;;;;;;;6.50;3.17;;;19.50;99.90;;;;;;4845193;29;20397;-83
2023/08/30 09:44:18;;;;;;;7.50;2.80;;;19.40;99.90;;;;;;4845027;29;20422;-82
2023/08/30 09:46:46;;;;;;;4.60;2.70;;;19.40;99.90;;;;;;4845431;29;20416;-82
2023/08/30 09:49:12;;;;;;;5.10;2.90;;;19.30;99.90;;;;;;4845235;29;20465;-82
2023/08/30 09:51:43;;;;;;;5.90;3.00;;;19.30;99.90;;;;;;4845621;29;20446;-82
2023/08/30 09:54:23;;;;;;;6.00;3.50;;;19.20;99.90;;;;;;4844995;29;20472;-82
2023/08/30 09:56:52;;;;;;;5.53;3.60;;;19.20;99.90;;;;;;4844659;29;20401;-83
2023/08/30 09:59:18;;;;;;;5.53;2.67;;;19.30;99.90;;;;;;4844849;29;20518;-82
2023/08/30 10:01:52;;;;;;;5.50;2.83;;;19.30;99.90;;;;;;4845167;29;20498;-83
2023/08/30 10:04:19;;;;;;;7.97;3.00;;;19.30;99.90;;;;;;4844511;29;20456;-82
2023/08/30 10:06:46;;;;;;;4.70;2.73;;;19.30;99.90;;;;;;4844696;29;20766;-82
2023/08/30 10:09:12;;;;;;;4.87;3.10;;;19.20;99.90;;;;;;4844813;29;20481;-83
2023/08/30 10:11:39;;;;;;;4.50;3.40;;;19.30;99.90;;;;;;4845412;29;20425;-84
2023/08/30 10:14:05;;;;;;;4.30;2.80;;;19.30;99.90;;;;;;4845753;29;20486;-82
2023/08/30 10:16:42;;;;;;;2.80;2.47;;;19.20;99.90;;;;;;4843220;29;20721;-83
2023/08/30 10:19:30;;;;;;;5.60;2.80;;;19.40;99.90;;;;;;4845146;29;20443;-84
2023/08/30 10:22:04;;;;;;;4.23;2.73;;;19.30;99.90;;;;;;4844307;29;20412;-84
2023/08/30 10:24:36;;;;;;;3.60;2.53;;;19.30;99.90;;;;;;4844163;29;20533;-82
2023/08/30 10:27:05;;;;;;;4.73;2.87;;;19.30;99.90;;;;;;4844753;29;20460;-82
2023/08/30 10:29:33;;;;;;;5.50;2.53;;;19.20;99.90;;;;;;4844115;29;20452;-82
2023/08/30 10:32:03;;;;;;;3.70;2.37;;;19.20;99.90;;;;;;4844575;29;20403;-83
2023/08/30 10:34:35;;;;;;;5.77;3.40;;;19.00;99.90;;;;;;4844242;29;20398;-83
2023/08/30 10:37:03;;;;;;;3.10;2.40;;;19.00;99.90;;;;;;4844579;29;20396;-83
2023/08/30 10:39:36;;;;;;;4.83;3.17;;;18.90;99.90;;;;;;4844958;29;20403;-82
2023/08/30 10:42:12;;;;;;;2.10;1.90;;;18.90;99.90;;;;;;4844506;29;20401;-81
2023/08/30 10:44:50;;;;;;;3.60;2.20;;;18.40;99.90;;;;;;4843646;29;20417;-84
2023/08/30 10:47:22;;;;;;;2.40;2.20;;;17.40;99.90;;;;;;4843505;29;20415;-82
2023/08/30 10:49:48;;;;;;;5.23;1.90;;;17.00;99.90;;;;;;4844891;29;20474;-86
2023/08/30 10:52:14;;;;;;;5.17;2.63;;;16.30;99.90;;;;;;4844133;29;20410;-81
2023/08/30 10:54:39;;;;;;;5.97;2.97;;;15.90;99.90;;;;;;4844447;29;20521;-84
2023/08/30 10:57:05;;;;;;;5.63;2.63;;;15.40;99.90;;;;;;4844548;29;20189;-84
2023/08/30 10:59:31;;;;;;;6.13;3.23;;;15.10;99.90;;;;;;4844551;29;20200;-87
2023/08/30 11:02:00;;;;;;;6.10;2.83;;;14.80;99.90;;;;;;4828744;29;20219;-86
2023/08/30 11:04:26;;;;;;;5.00;3.37;;;14.70;99.90;;;;;;4844627;29;20185;-85
2023/08/30 11:06:52;;;;;;;4.00;3.57;;;14.80;99.90;;;;;;4844516;29;20828;-88
2023/08/30 11:09:19;;;;;;;4.27;3.40;;;14.80;99.90;;;;;;4842786;29;20274;-84
2023/08/30 11:11:45;;;;;;;6.30;3.90;;;14.80;99.90;;;;;;4844545;29;20189;-85
2023/08/30 11:14:11;;;;;;;7.07;4.90;;;14.90;99.90;;;;;;4843712;29;20444;-86
2023/08/30 11:16:38;;;;;;;4.37;3.97;;;14.90;99.90;;;;;;4844052;29;20786;-85
2023/08/30 11:19:04;;;;;;;5.20;4.13;;;15.00;99.90;;;;;;4842099;29;20458;-85
2023/08/30 11:21:36;;;;;;;5.23;4.70;;;15.10;99.90;;;;;;4849615;29;20437;-84
2023/08/30 11:24:03;;;;;;;9.30;5.00;;;15.10;99.90;;;;;;4848167;29;20473;-87
2023/08/30 11:26:29;;;;;;;7.90;5.00;;;15.20;99.90;;;;;;4844677;29;20823;-85
2023/08/30 11:28:55;;;;;;;6.07;5.47;;;15.20;99.90;;;;;;4844193;29;20525;-85
2023/08/30 11:31:29;;;;;;;5.10;4.67;;;15.20;99.90;;;;;;4843782;29;20189;-86
2023/08/30 11:33:56;;;;;;;5.80;4.77;;;15.20;99.90;;;;;;4844309;29;20418;-85
2023/08/30 11:36:25;;;;;;;6.33;5.10;;;15.30;99.90;;;;;;4843307;29;20475;-86
2023/08/30 11:38:51;;;;;;;6.13;5.53;;;15.20;99.90;;;;;;4843918;29;20474;-86
2023/08/30 11:41:17;;;;;;;5.20;4.70;;;15.20;99.90;;;;;;4843553;29;20414;-85
2023/08/30 11:43:43;;;;;;;4.47;4.07;;;15.10;99.90;;;;;;4843306;29;20268;-85
2023/08/30 11:46:09;;;;;;;7.47;4.60;;;15.20;99.90;;;;;;4843351;29;20438;-87
2023/08/30 11:48:35;;;;;;;6.10;4.40;;;15.30;99.90;;;;;;4845736;29;20473;-88
2023/08/30 11:51:01;;;;;;;9.30;4.83;;;15.30;99.90;;;;;;4844088;29;20300;-86
2023/08/30 11:53:27;;;;;;;5.50;5.00;;;15.30;99.90;;;;;;4843619;29;20424;-86
2023/08/30 11:55:53;;;;;;;7.77;5.03;;;15.30;99.90;;;;;;4843162;29;20433;-87
2023/08/30 11:58:19;;;;;;;7.40;5.10;;;15.40;99.90;;;;;;4842576;29;20434;-88
2023/08/30 12:00:46;;;;;;;5.93;5.10;;;15.40;99.90;;;;;;4843480;29;20425;-86
2023/08/30 12:03:15;;;;;;;4.43;4.00;;;15.40;99.90;;;;;;4843491;29;20184;-85
2023/08/30 12:05:47;;;;;;;6.23;5.23;;;15.40;99.90;;;;;;4843584;29;20515;-85
2023/08/30 12:08:21;;;;;;;5.77;4.70;;;15.40;99.90;;;;;;4843497;29;20478;-85
2023/08/30 12:10:47;;;;;;;7.70;4.37;;;15.40;99.90;;;;;;4843545;29;20430;-87
2023/08/30 12:13:22;;;;;;;4.03;3.30;;;15.40;99.90;;;;;;4843244;29;20473;-86
2023/08/30 12:15:48;;;;;;;4.47;4.07;;;15.30;99.90;;;;;;4843371;29;20758;-86
2023/08/30 12:18:14;;;;;;;4.27;3.87;;;15.30;99.90;;;;;;4842145;29;20430;-86
2023/08/30 12:20:39;;;;;;;4.57;4.17;;;15.20;99.90;;;;;;4841990;29;20191;-86
2023/08/30 12:23:05;;;;;;;4.93;3.70;;;15.10;99.90;;;;;;4843626;29;20225;-86
2023/08/30 12:25:32;;;;;;;6.97;3.80;;;15.10;99.90;;;;;;4843334;29;20189;-85
2023/08/30 12:27:57;;;;;;;3.67;3.27;;;15.10;99.90;;;;;;4843456;29;20224;-88
2023/08/30 12:30:23;;;;;;;4.60;4.20;;;15.00;99.90;;;;;;4844568;29;20407;-88
2023/08/30 12:32:49;;;;;;;4.70;4.30;;;15.00;99.90;;;;;;4848571;29;20189;-89
2023/08/30 12:35:14;;;;;;;4.97;4.23;;;15.10;99.90;;;;;;4849080;29;20267;-86